^^
Station Historical Data
Daily Summary for June 12, 2017 Units:  Metric    English   Both
« Previous Day
Next Day »
Daily Weekly Monthly Yearly Custom
  High: Low: Average:
Temperature: 26.1 °C 8.4 °C 14.6 °C
Dew Point: 2.7 °C -3.6 °C 0.1 °C
Humidity: 57% 14% 40%
Wind Speed: 13km/h 0km/h 0.8km/h
Wind Gust: 19.3km/h - -
Wind- - North
Pressure: 1020.5 hPa 1016.1 hPa -
Precipitation: 0 mm    
Historical Graphs
 
 
Tabular Data for June 12, 2017
Time Temperature Dew Point Pressure Wind Wind Speed Wind Gust Humidity Rainfall Rate (Hourly) solar Conditions
00:05 13.2 °C 1.5 °C 1019.2 hPa Calm     45% 0 mm 0.0 W/m2
00:10 13.2 °C 1.5 °C 1019.2 hPa Calm     45% 0 mm 0.0 W/m2
00:15 13.2 °C 1.5 °C 1019.2 hPa Calm     45% 0 mm 0.0 W/m2
00:21 13.2 °C 1.2 °C 1019.2 hPa Calm     44% 0 mm 0.0 W/m2
00:31 13.2 °C 1.2 °C 1019.2 hPa Calm     44% 0 mm 0.0 W/m2
00:36 13.2 °C 1.2 °C 1018.8 hPa Calm     44% 0 mm 0.0 W/m2
00:41 13.1 °C 1.1 °C 1018.8 hPa Calm     44% 0 mm 0.0 W/m2
00:46 13.2 °C 1.2 °C 1018.8 hPa Calm     44% 0 mm 0.0 W/m2
00:52 13.2 °C 1.2 °C 1019.2 hPa Calm     44% 0 mm 0.0 W/m2
01:02 13.4 °C 1.4 °C 1018.8 hPa Calm     44% 0 mm 0.0 W/m2
01:07 13.4 °C 1.1 °C 1018.8 hPa Calm     43% 0 mm 0.0 W/m2
01:18 13.3 °C 1 °C 1018.8 hPa Calm     43% 0 mm 0.0 W/m2
01:23 13.2 °C 1.2 °C 1018.8 hPa Calm     44% 0 mm 0.0 W/m2
01:29 13.1 °C 1.1 °C 1018.8 hPa Calm     44% 0 mm 0.0 W/m2
01:34 12.9 °C 0.9 °C 1018.8 hPa Calm     44% 0 mm 0.0 W/m2
01:39 12.7 °C 0.8 °C 1019.2 hPa Calm     44% 0 mm 0.0 W/m2
01:44 12.4 °C 0.8 °C 1019.2 hPa Calm     45% 0 mm 0.0 W/m2
01:50 12.3 °C 0.7 °C 1019.2 hPa Calm     45% 0 mm 0.0 W/m2
01:55 12.2 °C 0.6 °C 1019.2 hPa Calm     45% 0 mm 0.0 W/m2
02:00 11.8 °C 0.6 °C 1019.2 hPa Calm     46% 0 mm 0.0 W/m2
02:05 11.4 °C 0.5 °C 1019.2 hPa Calm     47% 0 mm 0.0 W/m2
02:10 11.2 °C 0.6 °C 1019.2 hPa Calm     48% 0 mm 0.0 W/m2
02:15 11 °C 0.4 °C 1019.2 hPa Calm     48% 0 mm 0.0 W/m2
02:20 10.8 °C 0.2 °C 1019.2 hPa Calm     48% 0 mm 0.0 W/m2
02:26 10.7 °C 0.4 °C 1018.8 hPa Calm     49% 0 mm 0.0 W/m2
02:36 10.6 °C 0.3 °C 1019.2 hPa Calm     49% 0 mm 0.0 W/m2
02:41 10.5 °C 0.2 °C 1019.2 hPa Calm     49% 0 mm 0.0 W/m2
02:46 10.4 °C 0.4 °C 1018.8 hPa Calm     50% 0 mm 0.0 W/m2
02:51 10.4 °C 0.4 °C 1018.8 hPa Calm     50% 0 mm 0.0 W/m2
02:56 10.4 °C 0.4 °C 1018.8 hPa Calm     50% 0 mm 0.0 W/m2
03:02 10.3 °C 0 °C 1018.8 hPa Calm     49% 0 mm 0.0 W/m2
03:07 10.1 °C 0.1 °C 1018.8 hPa Calm     50% 0 mm 0.0 W/m2
03:12 9.8 °C 0.1 °C 1018.8 hPa Calm     51% 0 mm 0.0 W/m2
03:17 9.8 °C 0.1 °C 1018.8 hPa Calm     51% 0 mm 0.0 W/m2
03:23 9.8 °C 0.1 °C 1018.8 hPa Calm     51% 0 mm 0.0 W/m2
03:28 9.9 °C 0.2 °C 1018.8 hPa Calm     51% 0 mm 0.0 W/m2
03:33 10 °C 0.1 °C 1018.8 hPa Calm     50% 0 mm 0.0 W/m2
03:38 9.9 °C 0.2 °C 1018.8 hPa Calm     51% 0 mm 0.0 W/m2
03:43 9.9 °C 0.2 °C 1018.8 hPa Calm     51% 0 mm 0.0 W/m2
03:48 9.8 °C 0.1 °C 1018.8 hPa Calm     51% 0 mm 0.0 W/m2
03:54 9.8 °C 0.1 °C 1018.8 hPa Calm     51% 0 mm 0.0 W/m2
03:59 9.8 °C 0.1 °C 1018.5 hPa Calm     51% 0 mm 0.0 W/m2
04:04 9.8 °C 0.1 °C 1018.5 hPa Calm     51% 0 mm 0.0 W/m2
04:09 9.7 °C 0 °C 1018.5 hPa Calm     51% 0 mm 0.0 W/m2
04:20 9.6 °C 0.2 °C 1018.5 hPa Calm     52% 0 mm 0.0 W/m2
04:30 9.4 °C 0 °C 1018.5 hPa Calm     52% 0 mm 0.0 W/m2
04:35 9.3 °C -0.1 °C 1018.5 hPa Calm     52% 0 mm 0.0 W/m2
04:40 9.2 °C 0.1 °C 1018.5 hPa Calm     53% 0 mm 0.0 W/m2
04:46 9.2 °C 0.1 °C 1018.5 hPa Calm     53% 0 mm 0.0 W/m2
04:51 9.2 °C 0.1 °C 1018.5 hPa Calm     53% 0 mm 0.0 W/m2
04:56 9.3 °C 0.2 °C 1018.5 hPa Calm     53% 0 mm 0.0 W/m2
05:01 9.4 °C 0.3 °C 1018.5 hPa Calm     53% 0 mm 0.0 W/m2
05:07 9.4 °C 0.3 °C 1018.5 hPa Calm     53% 0 mm 0.0 W/m2
05:12 9.3 °C 0.2 °C 1018.5 hPa Calm     53% 0 mm 0.0 W/m2
05:17 9.2 °C 0.1 °C 1018.5 hPa Calm     53% 0 mm 0.0 W/m2
05:22 9.2 °C 0.4 °C 1018.5 hPa Calm     54% 0 mm 0.0 W/m2
05:27 9.2 °C 0.4 °C 1018.5 hPa Calm     54% 0 mm 0.0 W/m2
05:38 9.4 °C 0.3 °C 1018.5 hPa Calm     53% 0 mm 0.0 W/m2
05:53 9 °C 0.2 °C 1018.5 hPa Calm     54% 0 mm 0.0 W/m2
05:58 8.8 °C 0.3 °C 1018.5 hPa Calm     55% 0 mm 0.0 W/m2
06:04 8.8 °C 0.3 °C 1018.5 hPa Calm     55% 0 mm 0.0 W/m2
06:11 8.9 °C 0.3 °C 1018.8 hPa Calm     55% 0 mm 0.0 W/m2
06:16 8.8 °C 0.3 °C 1018.8 hPa Calm     55% 0 mm 0.0 W/m2
06:25 9 °C 0.2 °C 1018.8 hPa Calm     54% 0 mm 0.0 W/m2
06:31 8.9 °C 0.6 °C 1018.8 hPa Calm     56% 0 mm 0.0 W/m2
06:37 9.2 °C 0.4 °C 1019.2 hPa Calm     54% 0 mm 0.0 W/m2
06:42 9 °C 0.2 °C 1019.2 hPa Calm     54% 0 mm 0.0 W/m2
06:45 8.8 °C 0.3 °C 1019.2 hPa Calm     55% 0 mm 7.0 W/m2
06:56 8.6 °C 0.3 °C 1019.2 hPa Calm     56% 0 mm 21.0 W/m2
07:12 8.4 °C 0.4 °C 1019.5 hPa Calm     57% 0 mm 33.0 W/m2
07:21 8.6 °C 0.6 °C 1019.5 hPa Calm     57% 0 mm 44.0 W/m2
07:42 9.2 °C 0.9 °C 1019.9 hPa Calm     56% 0 mm 63.0 W/m2
07:57 10.2 °C 1.3 °C 1019.9 hPa Calm     54% 0 mm 171.0 W/m2
08:07 11.3 °C 1.5 °C 1020.2 hPa Calm     51% 0 mm 241.0 W/m2
08:19 12.6 °C 1.9 °C 1020.2 hPa Calm     48% 0 mm 253.0 W/m2
08:31 13.8 °C 1.8 °C 1020.5 hPa Calm     44% 0 mm 176.0 W/m2
08:40 14.4 °C 2 °C 1020.5 hPa North 6.4 km/h 6.4 km/h 43% 0 mm 236.0 W/m2
11:26 20.9 °C 2.7 °C 1018.8 hPa North 3.2 km/h 12.9 km/h 30% 0 mm 585.0 W/m2
11:40 21.2 °C 2.5 °C 1018.8 hPa North 3.2 km/h 14.5 km/h 29% 0 mm 587.0 W/m2
11:46 21.5 °C 2.2 °C 1018.5 hPa North 13 km/h 14.5 km/h 28% 0 mm 589.0 W/m2
12:01 21.8 °C 2.5 °C 1018.5 hPa North 3.2 km/h 19.3 km/h 28% 0 mm 589.0 W/m2
12:17 22 °C 2.1 °C 1018.2 hPa North 6.4 km/h 16.1 km/h 27% 0 mm 587.0 W/m2
12:26 22.6 °C 2.1 °C 1017.8 hPa Calm   3.2 km/h 26% 0 mm 582.0 W/m2
12:41 23.1 °C 2.5 °C 1017.5 hPa North 11.1 km/h 12.9 km/h 26% 0 mm 564.0 W/m2
13:02 23.7 °C 2.5 °C 1017.2 hPa North 1.4 km/h 14.5 km/h 25% 0 mm 550.0 W/m2
13:11 24 °C 1.6 °C 1016.8 hPa North 7.9 km/h 16.1 km/h 23% 0 mm 534.0 W/m2
13:31 24.3 °C 1.8 °C 1016.5 hPa North 9.7 km/h 17.7 km/h 23% 0 mm 510.0 W/m2
13:42 24.6 °C 1.5 °C 1016.5 hPa North 7.9 km/h 14.5 km/h 22% 0 mm 485.0 W/m2
13:57 24.4 °C 0.7 °C 1016.5 hPa North 6.4 km/h 12.9 km/h 21% 0 mm 462.0 W/m2
14:16 24.7 °C 0.9 °C 1016.1 hPa Calm   8 km/h 21% 0 mm 431.0 W/m2
14:25 24.8 °C 0.3 °C 1016.1 hPa Calm   8 km/h 20% 0 mm 408.0 W/m2
14:35 24.9 °C 0.4 °C 1016.1 hPa North 6.4 km/h 11.3 km/h 20% 0 mm 383.0 W/m2
14:42 25.1 °C -0.9 °C 1016.1 hPa Calm     18% 0 mm 359.0 W/m2
15:02 25.3 °C -1.5 °C 1016.1 hPa Calm   6.4 km/h 17% 0 mm 322.0 W/m2
15:12 25.3 °C -0.7 °C 1016.1 hPa Calm   9.7 km/h 18% 0 mm 295.0 W/m2
15:24 25.6 °C -0.5 °C 1016.1 hPa Calm     18% 0 mm 267.0 W/m2
15:38 25.7 °C -1.2 °C 1016.1 hPa Calm     17% 0 mm 220.0 W/m2
15:44 25.8 °C -1.9 °C 1016.1 hPa Calm     16% 0 mm 183.0 W/m2
15:54 25.8 °C -2.8 °C 1016.1 hPa Calm     15% 0 mm 146.0 W/m2
16:09 25.9 °C -3.6 °C 1016.1 hPa Calm     14% 0 mm 111.0 W/m2
16:21 26.1 °C -3.5 °C 1016.1 hPa Calm     14% 0 mm 74.0 W/m2
16:35 25.6 °C -3 °C 1016.1 hPa Calm     15% 0 mm 30.0 W/m2
16:41 24.9 °C -2.7 °C 1016.1 hPa Calm     16% 0 mm 12.0 W/m2
16:56 24 °C -2.6 °C 1016.1 hPa Calm     17% 0 mm 7.0 W/m2
17:06 22.8 °C -2.8 °C 1016.1 hPa Calm     18% 0 mm 0.0 W/m2
17:21 21.2 °C -2.7 °C 1016.5 hPa Calm     20% 0 mm 0.0 W/m2
17:29 20.3 °C -2.7 °C 1016.5 hPa Calm     21% 0 mm 0.0 W/m2
17:37 19.6 °C -2.7 °C 1016.8 hPa Calm     22% 0 mm 0.0 W/m2
17:51 19 °C -2 °C 1016.8 hPa Calm     24% 0 mm 0.0 W/m2
18:03 18.1 °C -2.2 °C 1016.8 hPa Calm     25% 0 mm 0.0 W/m2
18:13 17 °C -3.2 °C 1017.2 hPa Calm     25% 0 mm 0.0 W/m2
18:35 16.3 °C -2.7 °C 1017.2 hPa Calm     27% 0 mm 0.0 W/m2
18:51 15.4 °C -3 °C 1017.2 hPa Calm     28% 0 mm 0.0 W/m2
19:00 15.7 °C -3.3 °C 1017.5 hPa Calm     27% 0 mm 0.0 W/m2
19:16 15.8 °C -1.7 °C 1017.5 hPa Calm     30% 0 mm 0.0 W/m2
19:31 16.2 °C -1 °C 1017.8 hPa North 7.9 km/h 11.3 km/h 31% 0 mm 0.0 W/m2
19:36 16.2 °C -1 °C 1017.8 hPa North 7.9 km/h 11.3 km/h 31% 0 mm 0.0 W/m2
19:52 16.1 °C -0.6 °C 1017.8 hPa Calm     32% 0 mm 0.0 W/m2
20:02 15.4 °C -0.8 °C 1017.8 hPa Calm     33% 0 mm 0.0 W/m2
20:18 14.8 °C -0.5 °C 1017.8 hPa Calm     35% 0 mm 0.0 W/m2
20:40 14.2 °C -0.7 °C 1017.8 hPa Calm     36% 0 mm 0.0 W/m2
20:48 13.1 °C -0.9 °C 1018.2 hPa Calm     38% 0 mm 0.0 W/m2
21:09 12.6 °C -1 °C 1018.2 hPa Calm     39% 0 mm 0.0 W/m2
21:37 12.2 °C -1 °C 1018.2 hPa Calm     40% 0 mm 0.0 W/m2
21:56 11.9 °C -0.9 °C 1018.2 hPa Calm     41% 0 mm 0.0 W/m2
22:07 11.4 °C -0.7 °C 1018.2 hPa Calm     43% 0 mm 0.0 W/m2
Canyon Roadhouse, Fishriver Canyon, Namibia
Compliments of Weather Underground - 2.25 mb